PWSweather.com
Personal Weather Stations
Station Observations
PENICUIKWS
PenicuikGB

PenicuikGB

Lat: 55.830932, Lon: -3.224533000000065

Elevation: 166

Station Type: Fine Offset

http://weather.penicuik.org

High Low Average
Temperature 63.5°F17.5°C 38.8°F3.8°C 53.1°F11.7°C
Dew Point 43.0°F6.1°C 35.0°F1.7°C 38.1°F3.4°C
Winds 6.8 mph 10.9 kmh Calm Calm 3.0 mph SE4.8 kmh SE
Wind Gusts 10.7 mph17.2 kmh -- 4.0 mph6.4 kmh
Humidity 92% 37% 60%
Pressure 30.50 in1032.8 mb 30.35 in1027.8 mb -
Precipitation 0.00 in0.0 mm - -
Hour Temp Dew Point Humidity Winds Wind Gusts Pressure Precip Precip Rate Daily Precip Total
12:00 AM 47.7°F8.7°C 41.5°F5.3°C 79% 0.3 mph N0.5 kmh N 1.6 mph2.6 kmh 30.35 in1027.8 mb 0.00 in0.0 mm 0.00 in0.0 mm 0.00 in0.0 mm
12:15 AM 47.5°F8.6°C 41.3°F5.2°C 79% 0.8 mph NE1.3 kmh NE 2.2 mph3.5 kmh 30.36 in1028.1 mb 0.00 in0.0 mm 0.00 in0.0 mm 0.00 in0.0 mm
12:30 AM 47.3°F8.5°C 41.1°F5.1°C 79% 1.9 mph NW3.1 kmh NW 3.8 mph6.1 kmh 30.35 in1027.8 mb 0.00 in0.0 mm 0.00 in0.0 mm 0.00 in0.0 mm
12:45 AM 46.6°F8.1°C 40.7°F4.8°C 80% 1.2 mph NW1.9 kmh NW 2.2 mph3.5 kmh 30.36 in1028.1 mb 0.00 in0.0 mm 0.00 in0.0 mm 0.00 in0.0 mm
01:00 AM 46.0°F7.8°C 40.5°F4.7°C 81% 0.9 mph N1.4 kmh N 1.6 mph2.6 kmh 30.37 in1028.4 mb 0.00 in0.0 mm 0.00 in0.0 mm 0.00 in0.0 mm
01:15 AM 45.3°F7.4°C 40.2°F4.6°C 82% 0.7 mph NW1.1 kmh NW 1.6 mph2.6 kmh 30.36 in1028.1 mb 0.00 in0.0 mm 0.00 in0.0 mm 0.00 in0.0 mm
01:30 AM 45.1°F7.3°C 40.3°F4.6°C 83% 0.8 mph N1.3 kmh N 1.6 mph2.6 kmh 30.37 in1028.4 mb 0.00 in0.0 mm 0.00 in0.0 mm 0.00 in0.0 mm
01:45 AM 44.8°F7.1°C 39.9°F4.4°C 83% 0.5 mph N0.8 kmh N 1.6 mph2.6 kmh 30.38 in1028.8 mb 0.00 in0.0 mm 0.00 in0.0 mm 0.00 in0.0 mm
02:00 AM 44.6°F7.0°C 39.8°F4.3°C 83% 0.8 mph N1.3 kmh N 2.2 mph3.5 kmh 30.38 in1028.8 mb 0.00 in0.0 mm 0.00 in0.0 mm 0.00 in0.0 mm
02:30 AM 44.1°F6.7°C 38.9°F3.8°C 82% 0.4 mph N0.6 kmh N 1.6 mph2.6 kmh 30.39 in1029.1 mb 0.00 in0.0 mm 0.00 in0.0 mm 0.00 in0.0 mm
03:00 AM 43.0°F6.1°C 38.2°F3.4°C 83% 0.1 mph N0.2 kmh N 0.7 mph1.1 kmh 30.40 in1029.5 mb 0.00 in0.0 mm 0.00 in0.0 mm 0.00 in0.0 mm
03:15 AM 42.4°F5.8°C 38.0°F3.3°C 84% Calm Calm 0.7 mph1.1 kmh 30.40 in1029.5 mb 0.00 in0.0 mm 0.00 in0.0 mm 0.00 in0.0 mm
03:30 AM 42.3°F5.7°C 38.1°F3.4°C 85% Calm Calm -- 30.41 in1029.8 mb 0.00 in0.0 mm 0.00 in0.0 mm 0.00 in0.0 mm
03:45 AM 42.8°F6.0°C 38.3°F3.5°C 84% Calm Calm -- 30.41 in1029.8 mb 0.00 in0.0 mm 0.00 in0.0 mm 0.00 in0.0 mm
04:15 AM 43.2°F6.2°C 38.4°F3.6°C 83% Calm Calm 0.7 mph1.1 kmh 30.41 in1029.8 mb 0.00 in0.0 mm 0.00 in0.0 mm 0.00 in0.0 mm
04:30 AM 43.0°F6.1°C 38.2°F3.4°C 83% 0.6 mph S1.0 kmh S 1.6 mph2.6 kmh 30.42 in1030.1 mb 0.00 in0.0 mm 0.00 in0.0 mm 0.00 in0.0 mm
04:45 AM 42.3°F5.7°C 38.1°F3.4°C 85% 1.0 mph N1.6 kmh N 1.6 mph2.6 kmh 30.42 in1030.1 mb 0.00 in0.0 mm 0.00 in0.0 mm 0.00 in0.0 mm
05:15 AM 42.1°F5.6°C 37.9°F3.3°C 85% 0.1 mph NW0.2 kmh NW 0.7 mph1.1 kmh 30.43 in1030.5 mb 0.00 in0.0 mm 0.00 in0.0 mm 0.00 in0.0 mm
05:30 AM 43.0°F6.1°C 38.8°F3.8°C 85% 0.7 mph S1.1 kmh S 1.6 mph2.6 kmh 30.44 in1030.8 mb 0.00 in0.0 mm 0.00 in0.0 mm 0.00 in0.0 mm
05:45 AM 47.3°F8.5°C 42.7°F5.9°C 84% 0.3 mph NNE0.5 kmh NNE 0.7 mph1.1 kmh 30.44 in1030.8 mb 0.00 in0.0 mm 0.00 in0.0 mm 0.00 in0.0 mm
06:00 AM 56.3°F13.5°C 43.0°F6.1°C 61% 1.0 mph WSW1.6 kmh WSW 1.6 mph2.6 kmh 30.44 in1030.8 mb 0.00 in0.0 mm 0.00 in0.0 mm 0.00 in0.0 mm
06:45 AM 51.6°F10.9°C 37.8°F3.2°C 59% 1.9 mph NNE3.1 kmh NNE 2.2 mph3.5 kmh 30.45 in1031.2 mb 0.00 in0.0 mm 0.00 in0.0 mm 0.00 in0.0 mm
07:00 AM 56.3°F13.5°C 39.4°F4.1°C 53% 2.0 mph NNE3.2 kmh NNE 4.5 mph7.2 kmh 30.46 in1031.5 mb 0.00 in0.0 mm 0.00 in0.0 mm 0.00 in0.0 mm
07:15 AM 57.9°F14.4°C 37.3°F2.9°C 46% 4.0 mph N6.4 kmh N 5.4 mph8.7 kmh 30.46 in1031.5 mb 0.00 in0.0 mm 0.00 in0.0 mm 0.00 in0.0 mm
07:30 AM 59.2°F15.1°C 37.3°F2.9°C 44% 2.8 mph NNE4.5 kmh NNE 5.4 mph8.7 kmh 30.45 in1031.2 mb 0.00 in0.0 mm 0.00 in0.0 mm 0.00 in0.0 mm
07:45 AM 62.1°F16.7°C 39.9°F4.4°C 44% 2.0 mph N3.2 kmh N 3.1 mph5.0 kmh 30.46 in1031.5 mb 0.00 in0.0 mm 0.00 in0.0 mm 0.00 in0.0 mm
08:00 AM 59.7°F15.4°C 37.8°F3.2°C 44% 2.9 mph N4.7 kmh N 5.4 mph8.7 kmh 30.47 in1031.8 mb 0.00 in0.0 mm 0.00 in0.0 mm 0.00 in0.0 mm
08:15 AM 59.7°F15.4°C 37.8°F3.2°C 44% 3.6 mph S5.8 kmh S 5.4 mph8.7 kmh 30.47 in1031.8 mb 0.00 in0.0 mm 0.00 in0.0 mm 0.00 in0.0 mm
08:30 AM 61.9°F16.6°C 39.2°F4.0°C 43% 2.5 mph N4.0 kmh N 4.5 mph7.2 kmh 30.47 in1031.8 mb 0.00 in0.0 mm 0.00 in0.0 mm 0.00 in0.0 mm
08:45 AM 61.3°F16.3°C 37.5°F3.1°C 41% 2.3 mph NW3.7 kmh NW 3.1 mph5.0 kmh 30.46 in1031.5 mb 0.00 in0.0 mm 0.00 in0.0 mm 0.00 in0.0 mm
09:00 AM 61.5°F16.4°C 38.2°F3.4°C 42% 2.8 mph ENE4.5 kmh ENE 5.4 mph8.7 kmh 30.47 in1031.8 mb 0.00 in0.0 mm 0.00 in0.0 mm 0.00 in0.0 mm
09:15 AM 60.6°F15.9°C 38.0°F3.3°C 43% 3.2 mph N5.1 kmh N 4.5 mph7.2 kmh 30.48 in1032.2 mb 0.00 in0.0 mm 0.00 in0.0 mm 0.00 in0.0 mm
09:30 AM 60.6°F15.9°C 36.8°F2.7°C 41% 4.1 mph NNE6.6 kmh NNE 5.4 mph8.7 kmh 30.48 in1032.2 mb 0.00 in0.0 mm 0.00 in0.0 mm 0.00 in0.0 mm
09:45 AM 60.3°F15.7°C 37.7°F3.2°C 43% 3.5 mph E5.6 kmh E 4.5 mph7.2 kmh 30.48 in1032.2 mb 0.00 in0.0 mm 0.00 in0.0 mm 0.00 in0.0 mm
10:00 AM 62.8°F17.1°C 37.5°F3.1°C 39% 2.7 mph NE4.3 kmh NE 5.4 mph8.7 kmh 30.48 in1032.2 mb 0.00 in0.0 mm 0.00 in0.0 mm 0.00 in0.0 mm
10:15 AM 63.1°F17.3°C 38.4°F3.6°C 40% 3.5 mph N5.6 kmh N 6.0 mph9.7 kmh 30.48 in1032.2 mb 0.00 in0.0 mm 0.00 in0.0 mm 0.00 in0.0 mm
10:30 AM 63.5°F17.5°C 38.1°F3.4°C 39% 3.7 mph NE6.0 kmh NE 9.8 mph15.8 kmh 30.48 in1032.2 mb 0.00 in0.0 mm 0.00 in0.0 mm 0.00 in0.0 mm
10:45 AM 62.2°F16.8°C 38.9°F3.8°C 42% 5.1 mph N8.2 kmh N 9.2 mph14.8 kmh 30.48 in1032.2 mb 0.00 in0.0 mm 0.00 in0.0 mm 0.00 in0.0 mm
11:00 AM 61.7°F16.5°C 37.8°F3.2°C 41% 4.9 mph N7.9 kmh N 7.6 mph12.2 kmh 30.49 in1032.5 mb 0.00 in0.0 mm 0.00 in0.0 mm 0.00 in0.0 mm
11:15 AM 61.5°F16.4°C 38.2°F3.4°C 42% 4.9 mph NNW7.9 kmh NNW 9.2 mph14.8 kmh 30.49 in1032.5 mb 0.00 in0.0 mm 0.00 in0.0 mm 0.00 in0.0 mm
11:30 AM 63.0°F17.2°C 36.3°F2.4°C 37% 3.6 mph NE5.8 kmh NE 6.9 mph11.1 kmh 30.48 in1032.2 mb 0.00 in0.0 mm 0.00 in0.0 mm 0.00 in0.0 mm
11:45 AM 63.0°F17.2°C 37.0°F2.8°C 38% 4.2 mph SSW6.8 kmh SSW 7.6 mph12.2 kmh 30.48 in1032.2 mb 0.00 in0.0 mm 0.00 in0.0 mm 0.00 in0.0 mm
12:00 PM 62.4°F16.9°C 38.4°F3.6°C 41% 5.6 mph N9.0 kmh N 9.2 mph14.8 kmh 30.49 in1032.5 mb 0.00 in0.0 mm 0.00 in0.0 mm 0.00 in0.0 mm
12:15 PM 59.4°F15.2°C 37.5°F3.1°C 44% 6.8 mph N10.9 kmh N 10.7 mph17.2 kmh 30.49 in1032.5 mb 0.00 in0.0 mm 0.00 in0.0 mm 0.00 in0.0 mm
12:45 PM 61.9°F16.6°C 37.3°F2.9°C 40% 5.9 mph N9.5 kmh N 7.6 mph12.2 kmh 30.49 in1032.5 mb 0.00 in0.0 mm 0.00 in0.0 mm 0.00 in0.0 mm
01:00 PM 60.4°F15.8°C 37.9°F3.3°C 43% 5.5 mph W8.9 kmh W 9.2 mph14.8 kmh 30.49 in1032.5 mb 0.00 in0.0 mm 0.00 in0.0 mm 0.00 in0.0 mm
01:15 PM 62.6°F17.0°C 37.3°F2.9°C 39% 5.1 mph NNE8.2 kmh NNE 8.3 mph13.4 kmh 30.49 in1032.5 mb 0.00 in0.0 mm 0.00 in0.0 mm 0.00 in0.0 mm
01:30 PM 60.1°F15.6°C 36.9°F2.7°C 42% 4.6 mph N7.4 kmh N 7.6 mph12.2 kmh 30.49 in1032.5 mb 0.00 in0.0 mm 0.00 in0.0 mm 0.00 in0.0 mm
01:45 PM 61.3°F16.3°C 36.2°F2.3°C 39% 4.5 mph N7.2 kmh N 7.6 mph12.2 kmh 30.49 in1032.5 mb 0.00 in0.0 mm 0.00 in0.0 mm 0.00 in0.0 mm
02:00 PM 61.3°F16.3°C 35.5°F1.9°C 38% 5.3 mph SSW8.5 kmh SSW 9.8 mph15.8 kmh 30.49 in1032.5 mb 0.00 in0.0 mm 0.00 in0.0 mm 0.00 in0.0 mm
02:15 PM 62.1°F16.7°C 37.5°F3.1°C 40% 4.0 mph NE6.4 kmh NE 6.9 mph11.1 kmh 30.49 in1032.5 mb 0.00 in0.0 mm 0.00 in0.0 mm 0.00 in0.0 mm
02:30 PM 61.5°F16.4°C 36.3°F2.4°C 39% 3.6 mph NNE5.8 kmh NNE 6.0 mph9.7 kmh 30.50 in1032.8 mb 0.00 in0.0 mm 0.00 in0.0 mm 0.00 in0.0 mm
02:45 PM 62.2°F16.8°C 37.0°F2.8°C 39% 4.1 mph SW6.6 kmh SW 6.0 mph9.7 kmh 30.49 in1032.5 mb 0.00 in0.0 mm 0.00 in0.0 mm 0.00 in0.0 mm
03:00 PM 62.1°F16.7°C 37.5°F3.1°C 40% 4.5 mph N7.2 kmh N 8.3 mph13.4 kmh 30.49 in1032.5 mb 0.00 in0.0 mm 0.00 in0.0 mm 0.00 in0.0 mm
03:15 PM 60.8°F16.0°C 35.7°F2.1°C 39% 4.0 mph NE6.4 kmh NE 6.9 mph11.1 kmh 30.48 in1032.2 mb 0.00 in0.0 mm 0.00 in0.0 mm 0.00 in0.0 mm
03:30 PM 61.2°F16.2°C 36.7°F2.6°C 40% 3.4 mph NW5.5 kmh NW 4.5 mph7.2 kmh 30.48 in1032.2 mb 0.00 in0.0 mm 0.00 in0.0 mm 0.00 in0.0 mm
03:45 PM 59.9°F15.5°C 36.2°F2.3°C 41% 3.6 mph N5.8 kmh N 5.4 mph8.7 kmh 30.48 in1032.2 mb 0.00 in0.0 mm 0.00 in0.0 mm 0.00 in0.0 mm
04:15 PM 58.1°F14.5°C 35.1°F1.7°C 42% 3.6 mph NE5.8 kmh NE 5.4 mph8.7 kmh 30.47 in1031.8 mb 0.00 in0.0 mm 0.00 in0.0 mm 0.00 in0.0 mm
04:30 PM 57.6°F14.2°C 35.8°F2.1°C 44% 3.0 mph NE4.8 kmh NE 4.5 mph7.2 kmh 30.48 in1032.2 mb 0.00 in0.0 mm 0.00 in0.0 mm 0.00 in0.0 mm
04:45 PM 57.0°F13.9°C 37.0°F2.8°C 47% 3.9 mph SSE6.3 kmh SSE 7.6 mph12.2 kmh 30.47 in1031.8 mb 0.00 in0.0 mm 0.00 in0.0 mm 0.00 in0.0 mm
05:00 PM 56.1°F13.4°C 37.2°F2.9°C 49% 3.3 mph N5.3 kmh N 5.4 mph8.7 kmh 30.46 in1031.5 mb 0.00 in0.0 mm 0.00 in0.0 mm 0.00 in0.0 mm
05:15 PM 55.8°F13.2°C 38.4°F3.6°C 52% 3.9 mph NNW6.3 kmh NNW 7.6 mph12.2 kmh 30.46 in1031.5 mb 0.00 in0.0 mm 0.00 in0.0 mm 0.00 in0.0 mm
05:30 PM 55.6°F13.1°C 38.7°F3.7°C 53% 3.5 mph N5.6 kmh N 5.4 mph8.7 kmh 30.46 in1031.5 mb 0.00 in0.0 mm 0.00 in0.0 mm 0.00 in0.0 mm
05:45 PM 55.2°F12.9°C 38.9°F3.8°C 54% 4.4 mph N7.1 kmh N 6.0 mph9.7 kmh 30.46 in1031.5 mb 0.00 in0.0 mm 0.00 in0.0 mm 0.00 in0.0 mm
06:00 PM 54.9°F12.7°C 39.0°F3.9°C 55% 5.3 mph NNE8.5 kmh NNE 8.3 mph13.4 kmh 30.47 in1031.8 mb 0.00 in0.0 mm 0.00 in0.0 mm 0.00 in0.0 mm
06:30 PM 53.4°F11.9°C 39.5°F4.2°C 59% 4.4 mph N7.1 kmh N 6.0 mph9.7 kmh 30.47 in1031.8 mb 0.00 in0.0 mm 0.00 in0.0 mm 0.00 in0.0 mm
06:45 PM 52.9°F11.6°C 39.0°F3.9°C 59% 4.4 mph N7.1 kmh N 6.9 mph11.1 kmh 30.47 in1031.8 mb 0.00 in0.0 mm 0.00 in0.0 mm 0.00 in0.0 mm
07:00 PM 52.0°F11.1°C 38.5°F3.6°C 60% 4.1 mph N6.6 kmh N 5.4 mph8.7 kmh 30.47 in1031.8 mb 0.00 in0.0 mm 0.00 in0.0 mm 0.00 in0.0 mm
07:15 PM 52.0°F11.1°C 39.4°F4.1°C 62% 2.0 mph NNE3.2 kmh NNE 3.8 mph6.1 kmh 30.47 in1031.8 mb 0.00 in0.0 mm 0.00 in0.0 mm 0.00 in0.0 mm
07:30 PM 51.6°F10.9°C 39.8°F4.3°C 64% 2.8 mph ENE4.5 kmh ENE 4.5 mph7.2 kmh 30.47 in1031.8 mb 0.00 in0.0 mm 0.00 in0.0 mm 0.00 in0.0 mm
07:45 PM 51.1°F10.6°C 39.7°F4.3°C 65% 2.3 mph NE3.7 kmh NE 3.8 mph6.1 kmh 30.48 in1032.2 mb 0.00 in0.0 mm 0.00 in0.0 mm 0.00 in0.0 mm
08:00 PM 50.0°F10.0°C 39.1°F3.9°C 66% 1.2 mph SE1.9 kmh SE 1.6 mph2.6 kmh 30.48 in1032.2 mb 0.00 in0.0 mm 0.00 in0.0 mm 0.00 in0.0 mm
08:15 PM 48.4°F9.1°C 39.1°F3.9°C 70% 0.8 mph SSE1.3 kmh SSE 2.2 mph3.5 kmh 30.48 in1032.2 mb 0.00 in0.0 mm 0.00 in0.0 mm 0.00 in0.0 mm
08:30 PM 46.6°F8.1°C 38.0°F3.3°C 72% 0.2 mph S0.3 kmh S 1.6 mph2.6 kmh 30.49 in1032.5 mb 0.00 in0.0 mm 0.00 in0.0 mm 0.00 in0.0 mm
08:45 PM 44.8°F7.1°C 37.0°F2.8°C 74% Calm Calm -- 30.49 in1032.5 mb 0.00 in0.0 mm 0.00 in0.0 mm 0.00 in0.0 mm
09:00 PM 44.4°F6.9°C 38.3°F3.5°C 79% 2.3 mph SSE3.7 kmh SSE 3.1 mph5.0 kmh 30.49 in1032.5 mb 0.00 in0.0 mm 0.00 in0.0 mm 0.00 in0.0 mm
09:15 PM 43.3°F6.3°C 36.9°F2.7°C 78% 0.7 mph SSW1.1 kmh SSW 1.6 mph2.6 kmh 30.50 in1032.8 mb 0.00 in0.0 mm 0.00 in0.0 mm 0.00 in0.0 mm
09:30 PM 42.1°F5.6°C 36.4°F2.4°C 80% 0.6 mph N1.0 kmh N 2.2 mph3.5 kmh 30.49 in1032.5 mb 0.00 in0.0 mm 0.00 in0.0 mm 0.00 in0.0 mm
09:45 PM 41.2°F5.1°C 36.1°F2.3°C 82% 0.3 mph SSW0.5 kmh SSW 0.7 mph1.1 kmh 30.49 in1032.5 mb 0.00 in0.0 mm 0.00 in0.0 mm 0.00 in0.0 mm
10:00 PM 40.1°F4.5°C 35.7°F2.1°C 84% 0.1 mph WNW0.2 kmh WNW 0.7 mph1.1 kmh 30.48 in1032.2 mb 0.00 in0.0 mm 0.00 in0.0 mm 0.00 in0.0 mm
10:15 PM 38.8°F3.8°C 35.0°F1.7°C 86% 0.2 mph SW0.3 kmh SW 0.7 mph1.1 kmh 30.49 in1032.5 mb 0.00 in0.0 mm 0.00 in0.0 mm 0.00 in0.0 mm
10:30 PM 38.8°F3.8°C 35.6°F2.0°C 88% 0.1 mph SE0.2 kmh SE 0.7 mph1.1 kmh 30.49 in1032.5 mb 0.00 in0.0 mm 0.00 in0.0 mm 0.00 in0.0 mm
11:15 PM 39.6°F4.2°C 37.2°F2.9°C 91% 0.2 mph SSW0.3 kmh SSW 1.6 mph2.6 kmh 30.49 in1032.5 mb 0.00 in0.0 mm 0.00 in0.0 mm 0.00 in0.0 mm
11:30 PM 40.5°F4.7°C 38.3°F3.5°C 92% 1.0 mph SE1.6 kmh SE 3.8 mph6.1 kmh 30.50 in1032.8 mb 0.00 in0.0 mm 0.00 in0.0 mm 0.00 in0.0 mm